createdAt,value
2018-03-19T00:02:17.509Z,20.12
2018-03-19T00:04:43.846Z,20.12
2018-03-19T00:07:10.213Z,20.14
2018-03-19T00:09:36.542Z,20.14
2018-03-19T00:12:02.909Z,20.15
2018-03-19T00:14:29.302Z,20.14
2018-03-19T00:16:55.803Z,20.10
2018-03-19T00:19:22.138Z,20.13
2018-03-19T00:21:48.570Z,20.13
2018-03-19T00:24:14.925Z,20.12
2018-03-19T00:26:41.273Z,20.11
2018-03-19T00:29:07.693Z,20.06
2018-03-19T00:31:34.155Z,20.06
2018-03-19T00:34:00.488Z,20.07
2018-03-19T00:36:26.862Z,20.05
2018-03-19T00:38:53.251Z,20.06
2018-03-19T00:41:19.587Z,20.09
2018-03-19T00:43:45.952Z,20.07
2018-03-19T00:46:12.291Z,20.11
2018-03-19T00:48:38.667Z,20.10
2018-03-19T00:51:05.033Z,20.07
2018-03-19T00:53:31.370Z,20.12
2018-03-19T00:55:57.760Z,20.00
2018-03-19T00:58:24.085Z,20.05
2018-03-19T01:00:50.482Z,20.09
2018-03-19T01:03:16.851Z,20.04
2018-03-19T01:05:43.226Z,20.05
2018-03-19T01:08:09.555Z,20.05
2018-03-19T01:10:35.935Z,20.02
2018-03-19T01:13:02.277Z,20.06
2018-03-19T01:15:28.609Z,20.04
2018-03-19T01:17:54.978Z,20.02
2018-03-19T01:20:21.346Z,20.05
2018-03-19T01:22:47.733Z,20.05
2018-03-19T01:25:14.094Z,20.03
2018-03-19T01:27:40.479Z,20.04
2018-03-19T01:30:06.879Z,20.06
2018-03-19T01:32:33.253Z,20.00
2018-03-19T01:34:59.585Z,20.03
2018-03-19T01:37:25.939Z,20.04
2018-03-19T01:39:52.280Z,20.01
2018-03-19T01:42:18.660Z,20.02
2018-03-19T01:44:45.034Z,20.01
2018-03-19T01:47:11.423Z,20.05
2018-03-19T01:49:37.755Z,20.01
2018-03-19T01:52:04.148Z,20.01
2018-03-19T01:54:30.516Z,20.02
2018-03-19T01:56:56.867Z,19.98
2018-03-19T01:59:23.249Z,20.01
2018-03-19T02:01:49.583Z,20.03
2018-03-19T02:06:57.329Z,20.03
2018-03-19T02:09:23.737Z,20.04
2018-03-19T02:11:50.143Z,20.02
2018-03-19T02:14:16.509Z,20.00
2018-03-19T02:16:42.875Z,19.99
2018-03-19T02:19:09.281Z,20.02
2018-03-19T02:21:35.672Z,20.03
2018-03-19T02:24:02.098Z,20.10
2018-03-19T02:26:28.496Z,20.12
2018-03-19T02:28:54.909Z,20.15
2018-03-19T02:31:21.258Z,20.14
2018-03-19T02:33:47.630Z,20.18
2018-03-19T02:36:13.994Z,20.22
2018-03-19T02:38:40.446Z,20.24
2018-03-19T02:41:06.847Z,20.24
2018-03-19T02:43:33.201Z,20.28
2018-03-19T02:45:59.622Z,20.25
2018-03-19T02:48:25.965Z,20.30
2018-03-19T02:50:52.352Z,20.26
2018-03-19T02:53:18.682Z,20.34
2018-03-19T02:55:45.085Z,20.37
2018-03-19T02:58:11.431Z,20.37
2018-03-19T03:00:37.802Z,20.37
2018-03-19T03:03:04.147Z,20.39
2018-03-19T03:05:30.584Z,20.35
2018-03-19T03:07:56.967Z,20.43
2018-03-19T03:10:23.432Z,20.41
2018-03-19T03:12:49.943Z,20.41
2018-03-19T03:15:16.274Z,20.46
2018-03-19T03:17:42.627Z,20.48
2018-03-19T03:20:08.983Z,20.51
2018-03-19T03:22:35.443Z,20.46
2018-03-19T03:25:01.864Z,20.46
2018-03-19T03:27:28.205Z,20.53
2018-03-19T03:29:54.542Z,20.50
2018-03-19T03:32:20.900Z,20.50
2018-03-19T03:34:47.235Z,20.56
2018-03-19T03:37:13.598Z,20.61
2018-03-19T03:39:39.933Z,20.65
2018-03-19T03:42:06.350Z,20.64
2018-03-19T03:44:32.730Z,20.57
2018-03-19T03:46:59.106Z,20.61
2018-03-19T03:49:25.470Z,20.63
2018-03-19T03:51:51.856Z,20.57
2018-03-19T03:54:18.402Z,20.71
2018-03-19T03:56:44.754Z,20.69
2018-03-19T03:59:11.141Z,20.76
2018-03-19T04:01:37.494Z,20.64
2018-03-19T04:04:03.889Z,20.64
2018-03-19T04:06:30.257Z,20.75
2018-03-19T04:08:56.627Z,20.75
2018-03-19T04:11:23.071Z,20.78
2018-03-19T04:13:49.437Z,20.77
2018-03-19T04:16:15.808Z,20.85
2018-03-19T04:18:42.145Z,20.89
2018-03-19T04:21:08.477Z,20.89
2018-03-19T04:23:34.806Z,20.88
2018-03-19T04:26:01.187Z,20.91
2018-03-19T04:28:27.630Z,21.03
2018-03-19T04:30:54.109Z,21.00
2018-03-19T04:33:20.472Z,21.02
2018-03-19T04:35:46.817Z,21.14
2018-03-19T04:38:13.225Z,21.09
2018-03-19T04:40:39.560Z,21.13
2018-03-19T04:45:38.465Z,21.16
2018-03-19T04:48:04.833Z,21.16
2018-03-19T04:50:31.279Z,21.18
2018-03-19T04:52:57.640Z,21.20
2018-03-19T04:55:24.144Z,21.21
2018-03-19T04:57:50.517Z,21.22
2018-03-19T05:00:16.931Z,21.28
2018-03-19T05:02:43.253Z,21.20
2018-03-19T05:05:09.638Z,21.36
2018-03-19T05:07:35.999Z,21.35
2018-03-19T05:10:02.384Z,21.42
2018-03-19T05:12:28.810Z,21.43
2018-03-19T05:14:55.178Z,21.42
2018-03-19T05:17:21.667Z,21.42
2018-03-19T05:19:48.045Z,21.40
2018-03-19T05:22:14.470Z,21.40
2018-03-19T05:24:40.897Z,21.46
2018-03-19T05:27:07.246Z,21.47
2018-03-19T05:29:33.580Z,21.55
2018-03-19T05:31:59.972Z,21.50
2018-03-19T05:34:26.366Z,21.61
2018-03-19T05:36:52.753Z,21.61
2018-03-19T05:39:20.040Z,21.64
2018-03-19T05:41:46.837Z,21.66
2018-03-19T05:44:13.171Z,21.65
2018-03-19T05:46:39.507Z,21.70
2018-03-19T05:49:06.090Z,21.73
2018-03-19T05:51:32.498Z,21.72
2018-03-19T05:53:59.203Z,21.64
2018-03-19T05:56:25.560Z,21.77
2018-03-19T05:58:52.387Z,21.74
2018-03-19T06:01:18.850Z,21.77
2018-03-19T06:03:45.271Z,21.76
2018-03-19T06:06:11.623Z,21.84
2018-03-19T06:08:37.995Z,21.91
2018-03-19T06:11:04.452Z,21.79
2018-03-19T06:13:30.858Z,21.84
2018-03-19T06:15:57.328Z,21.85
2018-03-19T06:18:23.679Z,21.94
2018-03-19T06:20:50.047Z,21.93
2018-03-19T06:23:16.479Z,21.87
2018-03-19T06:25:42.861Z,22.08
2018-03-19T06:28:09.258Z,21.97
2018-03-19T06:30:35.766Z,22.03
2018-03-19T06:33:02.154Z,22.16
2018-03-19T06:35:28.519Z,22.14
2018-03-19T06:37:55.308Z,22.13
2018-03-19T06:40:22.982Z,22.22
2018-03-19T06:42:49.348Z,22.23
2018-03-19T06:45:15.845Z,22.27
2018-03-19T06:47:42.224Z,22.38
2018-03-19T06:50:08.663Z,22.26
2018-03-19T06:52:35.700Z,22.47
2018-03-19T06:55:02.199Z,22.46
2018-03-19T06:57:28.537Z,22.49
2018-03-19T07:00:01.924Z,22.43
2018-03-19T07:02:28.707Z,22.60
2018-03-19T07:04:55.258Z,22.52
2018-03-19T07:07:21.621Z,22.57
2018-03-19T07:09:48.471Z,22.63
2018-03-19T07:12:15.410Z,22.63
2018-03-19T07:14:41.904Z,22.60
2018-03-19T07:17:08.278Z,22.71
2018-03-19T07:19:35.434Z,22.73
2018-03-19T07:22:02.170Z,22.80
2018-03-19T07:24:29.133Z,22.80
2018-03-19T07:26:55.925Z,22.93
2018-03-19T07:29:22.523Z,22.99
2018-03-19T07:31:49.358Z,23.11
2018-03-19T07:34:16.267Z,23.13
2018-03-19T07:36:42.770Z,23.17
2018-03-19T07:39:09.248Z,23.18
2018-03-19T07:41:35.752Z,23.21
2018-03-19T07:44:03.035Z,23.29
2018-03-19T07:46:32.025Z,23.38
2018-03-19T07:48:58.672Z,23.38
2018-03-19T07:51:25.481Z,23.47
2018-03-19T07:53:52.910Z,23.57
2018-03-19T07:56:19.847Z,23.59
2018-03-19T07:58:46.827Z,23.52
2018-03-19T08:01:13.969Z,23.61
2018-03-19T08:03:41.164Z,23.71
2018-03-19T08:06:07.842Z,23.72
2018-03-19T08:08:34.958Z,23.79
2018-03-19T08:11:01.952Z,23.67
2018-03-19T08:13:28.847Z,23.79
2018-03-19T08:15:55.850Z,23.83
2018-03-19T08:18:22.487Z,23.81
2018-03-19T08:20:49.382Z,24.02
2018-03-19T08:23:16.231Z,23.84
2018-03-19T08:25:43.362Z,23.88
2018-03-19T08:28:10.115Z,24.00
2018-03-19T08:30:36.879Z,23.90
2018-03-19T08:33:04.528Z,23.90
2018-03-19T08:35:31.635Z,24.04
2018-03-19T08:37:59.255Z,23.98
2018-03-19T08:40:27.333Z,24.11
2018-03-19T08:42:53.943Z,23.85
2018-03-19T08:45:20.879Z,24.11
2018-03-19T08:47:47.849Z,24.09
2018-03-19T08:50:14.394Z,24.10
2018-03-19T08:52:40.840Z,24.18
2018-03-19T08:55:07.243Z,24.25
2018-03-19T08:57:33.613Z,24.16
2018-03-19T09:00:00.047Z,24.26
2018-03-19T09:02:26.407Z,24.19
2018-03-19T09:04:52.794Z,24.14
2018-03-19T09:07:19.665Z,24.28
2018-03-19T09:09:46.232Z,24.23
2018-03-19T09:12:12.701Z,24.27
2018-03-19T09:14:40.010Z,24.20
2018-03-19T09:17:07.476Z,24.24
2018-03-19T09:19:33.913Z,24.24
2018-03-19T09:22:00.464Z,24.17
2018-03-19T09:24:28.122Z,24.14
2018-03-19T09:26:55.381Z,24.15
2018-03-19T09:29:24.289Z,24.12
2018-03-19T09:31:51.158Z,23.99
2018-03-19T09:34:17.732Z,24.06
2018-03-19T09:36:44.257Z,23.90
2018-03-19T09:39:10.651Z,23.90
2018-03-19T09:41:37.200Z,24.00
2018-03-19T09:44:04.286Z,23.99
2018-03-19T09:46:31.197Z,23.91
2018-03-19T09:48:57.876Z,23.90
2018-03-19T09:51:24.542Z,23.97
2018-03-19T09:53:51.679Z,24.01
2018-03-19T09:56:18.524Z,23.94
2018-03-19T09:58:45.483Z,23.95
2018-03-19T10:01:12.084Z,23.90
2018-03-19T10:03:38.516Z,23.96
2018-03-19T10:06:05.198Z,23.92
2018-03-19T10:08:31.999Z,23.91
2018-03-19T10:10:58.866Z,23.84
2018-03-19T10:13:25.719Z,23.99
2018-03-19T10:15:52.150Z,24.02
2018-03-19T10:18:18.705Z,24.00
2018-03-19T10:20:45.218Z,23.98
2018-03-19T10:23:12.043Z,24.03
2018-03-19T10:25:38.639Z,24.00
2018-03-19T10:28:05.673Z,23.96
2018-03-19T10:30:32.665Z,23.95
2018-03-19T10:32:59.728Z,23.90
2018-03-19T10:35:26.178Z,23.90
2018-03-19T10:37:53.339Z,23.86
2018-03-19T10:40:28.224Z,23.85
2018-03-19T10:42:55.173Z,23.84
2018-03-19T10:45:22.177Z,23.85
2018-03-19T10:47:49.009Z,23.82
2018-03-19T10:50:15.814Z,23.79
2018-03-19T10:52:42.526Z,23.73
2018-03-19T10:55:09.348Z,23.71
2018-03-19T10:57:36.737Z,23.76
2018-03-19T11:00:03.519Z,23.73
2018-03-19T11:02:30.782Z,23.68
2018-03-19T11:05:01.949Z,23.60
2018-03-19T11:07:29.581Z,23.65
2018-03-19T11:09:56.609Z,23.66
2018-03-19T11:12:23.764Z,23.62
2018-03-19T11:14:50.896Z,23.69
2018-03-19T11:17:17.584Z,23.67
2018-03-19T11:19:44.826Z,23.60
2018-03-19T11:22:11.516Z,23.64
2018-03-19T11:24:38.259Z,23.60
2018-03-19T11:27:05.064Z,23.61
2018-03-19T11:29:31.667Z,23.60
2018-03-19T11:31:58.137Z,23.61
2018-03-19T11:34:24.829Z,23.61
2018-03-19T11:36:51.802Z,23.64
2018-03-19T11:41:58.483Z,23.62
2018-03-19T11:44:25.323Z,23.64
2018-03-19T11:46:51.870Z,23.58
2018-03-19T11:49:18.724Z,23.56
2018-03-19T11:51:47.430Z,23.74
2018-03-19T11:54:14.578Z,23.62
2018-03-19T11:56:41.599Z,23.59
2018-03-19T12:07:05.123Z,23.54
2018-03-19T12:09:31.979Z,23.45
2018-03-19T12:11:58.401Z,23.55
2018-03-19T12:14:25.146Z,23.54
2018-03-19T12:16:51.877Z,23.55
2018-03-19T12:19:18.716Z,23.58
2018-03-19T12:21:45.340Z,23.53
2018-03-19T12:24:12.171Z,23.51
2018-03-19T12:26:38.825Z,23.45
2018-03-19T12:29:05.269Z,23.40
2018-03-19T12:31:31.788Z,23.47
2018-03-19T12:33:58.644Z,23.55
2018-03-19T12:36:25.213Z,23.44
2018-03-19T12:38:52.021Z,23.50
2018-03-19T12:41:18.674Z,23.45
2018-03-19T12:43:45.403Z,23.45
2018-03-19T12:46:12.080Z,23.42
2018-03-19T12:51:10.333Z,23.42
2018-03-19T12:53:37.218Z,23.39
2018-03-19T12:56:04.045Z,23.43
2018-03-19T12:58:31.061Z,23.43
2018-03-19T13:08:54.313Z,23.39
2018-03-19T13:11:21.333Z,23.37
2018-03-19T13:13:48.484Z,23.27
2018-03-19T13:16:15.122Z,23.31
2018-03-19T13:18:42.230Z,23.26
2018-03-19T13:21:09.121Z,23.25
2018-03-19T13:23:35.758Z,23.27
2018-03-19T13:26:02.722Z,23.22
2018-03-19T13:28:29.981Z,23.25
2018-03-19T13:30:57.086Z,23.25
2018-03-19T13:33:25.092Z,23.22
2018-03-19T13:35:53.902Z,23.23
2018-03-19T13:38:21.145Z,23.23
2018-03-19T13:40:48.195Z,23.24
2018-03-19T13:43:15.320Z,23.17
2018-03-19T13:45:42.020Z,23.14
2018-03-19T13:48:09.772Z,23.13
2018-03-19T13:50:36.469Z,23.16
2018-03-19T13:53:03.322Z,23.11
2018-03-19T13:55:29.823Z,23.02
2018-03-19T13:57:57.564Z,23.15
2018-03-19T14:03:04.528Z,23.08
2018-03-19T14:05:31.530Z,23.08
2018-03-19T14:07:58.115Z,23.02
2018-03-19T14:10:24.927Z,23.03
2018-03-19T14:12:51.400Z,23.01
2018-03-19T14:15:17.809Z,23.00
2018-03-19T14:17:44.342Z,22.97
2018-03-19T14:20:10.941Z,22.96
2018-03-19T14:22:37.314Z,22.93
2018-03-19T14:25:03.722Z,22.94
2018-03-19T14:27:30.132Z,22.96
2018-03-19T14:29:56.683Z,22.99
2018-03-19T14:32:23.440Z,22.98
2018-03-19T14:34:49.832Z,22.93
2018-03-19T14:37:16.265Z,22.86
2018-03-19T14:39:42.693Z,22.92
2018-03-19T14:42:09.206Z,22.86
2018-03-19T14:44:36.441Z,22.84
2018-03-19T14:47:03.124Z,22.85
2018-03-19T14:49:29.724Z,22.83
2018-03-19T14:51:56.083Z,22.80
2018-03-19T14:54:22.452Z,22.73
2018-03-19T14:56:49.073Z,22.79
2018-03-19T14:59:15.457Z,22.73
2018-03-19T15:01:41.949Z,22.69
2018-03-19T15:04:08.295Z,22.65
2018-03-19T15:06:34.739Z,22.67
2018-03-19T15:09:01.082Z,22.69
2018-03-19T15:11:27.439Z,22.62
2018-03-19T15:13:53.847Z,22.61
2018-03-19T15:16:20.201Z,22.66
2018-03-19T15:18:46.818Z,22.54
2018-03-19T15:21:13.173Z,22.61
2018-03-19T15:23:39.606Z,22.58
2018-03-19T15:26:05.957Z,22.53
2018-03-19T15:28:32.313Z,22.56
2018-03-19T15:30:58.818Z,22.48
2018-03-19T15:33:25.297Z,22.46
2018-03-19T15:35:51.770Z,22.44
2018-03-19T15:38:18.118Z,22.47
2018-03-19T15:40:44.834Z,22.42
2018-03-19T15:43:11.192Z,22.50
2018-03-19T15:45:37.585Z,22.49
2018-03-19T15:48:03.979Z,22.49
2018-03-19T15:50:30.325Z,22.41
2018-03-19T15:52:56.807Z,22.36
2018-03-19T15:55:23.196Z,22.40
2018-03-19T15:57:49.578Z,22.34
2018-03-19T16:00:15.993Z,22.43
2018-03-19T16:02:42.427Z,22.33
2018-03-19T16:05:08.798Z,22.22
2018-03-19T16:07:35.185Z,22.26
2018-03-19T16:10:01.563Z,22.29
2018-03-19T16:12:27.988Z,22.26
2018-03-19T16:14:54.576Z,22.21
2018-03-19T16:17:21.038Z,22.16
2018-03-19T16:19:47.449Z,22.14
2018-03-19T16:22:13.838Z,22.10
2018-03-19T16:24:40.182Z,22.13
2018-03-19T16:27:06.525Z,22.10
2018-03-19T16:29:32.937Z,22.07
2018-03-19T16:31:59.306Z,22.05
2018-03-19T16:34:25.673Z,22.08
2018-03-19T16:36:52.008Z,22.01
2018-03-19T16:39:18.386Z,22.02
2018-03-19T16:41:44.757Z,21.96
2018-03-19T16:44:11.102Z,21.96
2018-03-19T16:46:37.506Z,21.89
2018-03-19T16:49:03.918Z,21.92
2018-03-19T16:51:30.320Z,21.88
2018-03-19T16:53:56.800Z,21.87
2018-03-19T16:56:23.305Z,21.77
2018-03-19T16:58:49.634Z,21.76
2018-03-19T17:01:16.009Z,21.67
2018-03-19T17:03:42.405Z,21.72
2018-03-19T17:06:08.788Z,21.64
2018-03-19T17:08:35.119Z,21.66
2018-03-19T17:11:01.453Z,21.54
2018-03-19T17:13:27.844Z,21.61
2018-03-19T17:15:54.194Z,21.57
2018-03-19T17:18:20.604Z,21.54
2018-03-19T17:20:46.955Z,21.53
2018-03-19T17:23:13.330Z,21.51
2018-03-19T17:25:39.661Z,21.48
2018-03-19T17:28:06.006Z,21.43
2018-03-19T17:30:32.459Z,21.43
2018-03-19T17:32:58.842Z,21.34
2018-03-19T17:35:25.215Z,21.36
2018-03-19T17:37:51.549Z,21.34
2018-03-19T17:40:17.995Z,21.28
2018-03-19T17:42:44.346Z,21.27
2018-03-19T17:45:10.708Z,21.24
2018-03-19T17:47:37.097Z,21.18
2018-03-19T17:50:03.430Z,21.21
2018-03-19T17:52:29.760Z,21.16
2018-03-19T17:54:56.145Z,21.10
2018-03-19T17:57:22.542Z,21.08
2018-03-19T17:59:48.879Z,21.09
2018-03-19T18:02:15.235Z,21.04
2018-03-19T18:04:41.591Z,21.08
2018-03-19T18:07:07.976Z,21.15
2018-03-19T18:09:34.292Z,21.16
2018-03-19T18:12:00.629Z,21.25
2018-03-19T18:14:26.985Z,21.18
2018-03-19T18:16:53.339Z,21.29
2018-03-19T18:19:19.743Z,21.34
2018-03-19T18:21:46.072Z,21.33
2018-03-19T18:24:12.463Z,21.31
2018-03-19T18:26:38.786Z,21.33
2018-03-19T18:29:05.147Z,21.35
2018-03-19T18:31:31.483Z,21.33
2018-03-19T18:33:57.863Z,21.35
2018-03-19T18:36:24.234Z,21.37
2018-03-19T18:38:50.601Z,21.36
2018-03-19T18:41:17.192Z,21.35
2018-03-19T18:43:43.650Z,21.33
2018-03-19T18:46:10.015Z,21.30
2018-03-19T18:48:36.341Z,21.29
2018-03-19T18:51:02.778Z,21.29
2018-03-19T18:53:29.204Z,21.32
2018-03-19T18:55:55.532Z,21.31
2018-03-19T18:58:22.101Z,21.30
2018-03-19T19:00:48.485Z,21.25
2018-03-19T19:03:14.891Z,21.29
2018-03-19T19:05:41.221Z,21.27
2018-03-19T19:08:07.605Z,21.25
2018-03-19T19:10:33.998Z,21.24
2018-03-19T19:13:00.379Z,21.27
2018-03-19T19:15:26.720Z,21.19
2018-03-19T19:17:53.042Z,21.20
2018-03-19T19:20:19.390Z,21.25
2018-03-19T19:22:45.726Z,21.28
2018-03-19T19:25:12.089Z,21.21
2018-03-19T19:27:38.413Z,21.16
2018-03-19T19:30:04.765Z,21.21
2018-03-19T19:32:31.088Z,21.16
2018-03-19T19:34:57.493Z,21.29
2018-03-19T19:37:23.914Z,21.10
2018-03-19T19:39:50.282Z,21.05
2018-03-19T19:42:16.603Z,21.10
2018-03-19T19:44:42.950Z,21.03
2018-03-19T19:47:09.310Z,21.13
2018-03-19T19:49:35.687Z,21.11
2018-03-19T19:52:02.019Z,21.05
2018-03-19T19:54:28.435Z,20.90
2018-03-19T19:56:54.770Z,20.90
2018-03-19T19:59:21.137Z,20.92
2018-03-19T20:01:47.461Z,20.91
2018-03-19T20:04:13.940Z,21.01
2018-03-19T20:06:40.266Z,20.90
2018-03-19T20:09:06.652Z,20.85
2018-03-19T20:11:32.980Z,20.76
2018-03-19T20:13:59.342Z,20.84
2018-03-19T20:16:25.682Z,20.80
2018-03-19T20:18:52.093Z,20.90
2018-03-19T20:21:18.459Z,20.80
2018-03-19T20:23:44.826Z,20.70
2018-03-19T20:26:11.200Z,20.79
2018-03-19T20:28:37.529Z,20.65
2018-03-19T20:31:03.856Z,20.69
2018-03-19T20:33:30.197Z,20.70
2018-03-19T20:35:56.560Z,20.70
2018-03-19T20:38:23.026Z,20.77
2018-03-19T20:40:49.380Z,20.70
2018-03-19T20:43:15.712Z,20.72
2018-03-19T20:45:42.140Z,20.65
2018-03-19T20:48:08.465Z,20.62
2018-03-19T20:50:34.831Z,20.72
2018-03-19T20:53:01.192Z,20.72
2018-03-19T20:55:27.509Z,20.60
2018-03-19T20:57:53.891Z,20.60
2018-03-19T21:00:20.274Z,20.57
2018-03-19T21:02:46.606Z,20.54
2018-03-19T21:05:13.050Z,20.49
2018-03-19T21:07:39.450Z,20.46
2018-03-19T21:10:05.785Z,20.53
2018-03-19T21:12:32.158Z,20.55
2018-03-19T21:14:58.502Z,20.45
2018-03-19T21:17:24.987Z,20.34
2018-03-19T21:19:51.364Z,20.34
2018-03-19T21:22:17.872Z,20.39
2018-03-19T21:24:44.201Z,20.24
2018-03-19T21:27:10.537Z,20.27
2018-03-19T21:29:36.883Z,20.19
2018-03-19T21:32:03.218Z,20.20
2018-03-19T21:34:29.542Z,20.18
2018-03-19T21:36:55.875Z,20.14
2018-03-19T21:39:22.270Z,20.15
2018-03-19T21:41:48.623Z,20.14
2018-03-19T21:44:14.965Z,20.12
2018-03-19T21:46:41.349Z,20.07
2018-03-19T21:49:07.714Z,20.05
2018-03-19T21:51:34.046Z,20.10
2018-03-19T21:54:00.441Z,20.07
2018-03-19T21:56:26.909Z,20.04
2018-03-19T21:58:53.169Z,20.04
2018-03-19T22:01:19.630Z,20.00
2018-03-19T22:03:45.958Z,20.02
2018-03-19T22:06:12.290Z,20.00
2018-03-19T22:08:38.674Z,20.00
2018-03-19T22:11:05.071Z,20.01
2018-03-19T22:13:31.438Z,19.92
2018-03-19T22:15:57.811Z,19.99
2018-03-19T22:18:24.173Z,19.99
2018-03-19T22:20:50.513Z,19.97
2018-03-19T22:23:16.883Z,19.96
2018-03-19T22:25:43.221Z,19.95
2018-03-19T22:28:09.546Z,19.91
2018-03-19T22:30:35.888Z,19.91
2018-03-19T22:33:02.245Z,19.95
2018-03-19T22:35:28.574Z,19.97
2018-03-19T22:37:54.948Z,19.94
2018-03-19T22:40:21.344Z,19.90
2018-03-19T22:42:47.730Z,19.94
2018-03-19T22:45:14.064Z,19.97
2018-03-19T22:47:40.434Z,19.97
2018-03-19T22:50:06.764Z,19.95
2018-03-19T22:52:33.174Z,19.89
2018-03-19T22:54:59.509Z,19.88
2018-03-19T22:57:25.841Z,19.95
2018-03-19T22:59:52.191Z,19.97
2018-03-19T23:02:18.534Z,19.97
2018-03-19T23:04:44.922Z,19.94
2018-03-19T23:07:11.250Z,19.86
2018-03-19T23:09:37.577Z,19.88
2018-03-19T23:12:03.946Z,19.87
2018-03-19T23:14:30.272Z,19.86
2018-03-19T23:16:56.602Z,19.86
2018-03-19T23:19:22.944Z,19.84
2018-03-19T23:21:49.304Z,19.85
2018-03-19T23:24:15.738Z,19.95
2018-03-19T23:26:42.297Z,19.87
2018-03-19T23:29:08.667Z,19.88
2018-03-19T23:31:35.006Z,19.85
2018-03-19T23:34:01.385Z,19.85
2018-03-19T23:36:27.718Z,19.85
2018-03-19T23:38:54.123Z,19.83
2018-03-19T23:41:20.553Z,19.85
2018-03-19T23:43:46.940Z,19.85
2018-03-19T23:46:13.262Z,19.81
2018-03-19T23:48:39.715Z,19.85
2018-03-19T23:51:06.056Z,19.81
2018-03-19T23:53:32.446Z,19.81
2018-03-19T23:55:58.809Z,19.79
2018-03-19T23:58:25.162Z,19.76
